createdAt,value
2023-02-18T00:01:47.691Z,9.50
2023-02-18T00:04:14.998Z,8.75
2023-02-18T00:06:42.646Z,8.30
2023-02-18T00:09:12.084Z,8.07
2023-02-18T00:11:40.171Z,7.80
2023-02-18T00:14:13.578Z,7.50
2023-02-18T00:16:42.210Z,6.95
2023-02-18T00:19:17.770Z,7.05
2023-02-18T00:21:46.632Z,6.55
2023-02-18T00:24:17.004Z,7.00
2023-02-18T00:26:45.522Z,5.95
2023-02-18T00:29:12.961Z,6.25
2023-02-18T00:31:41.614Z,6.03
2023-02-18T00:34:11.100Z,5.57
2023-02-18T00:36:38.762Z,5.80
2023-02-18T00:39:10.281Z,5.10
2023-02-18T00:41:38.938Z,5.35
2023-02-18T00:44:07.018Z,4.82
2023-02-18T00:46:36.119Z,5.53
2023-02-18T00:49:05.099Z,6.18
2023-02-18T00:51:33.594Z,4.15
2023-02-18T00:54:01.064Z,3.83
2023-02-18T00:56:29.068Z,3.80
2023-02-18T00:58:56.401Z,3.92
2023-02-18T01:01:24.490Z,3.60
2023-02-18T01:03:52.017Z,3.42
2023-02-18T01:06:22.180Z,3.22
2023-02-18T01:08:49.868Z,3.60
2023-02-18T01:11:18.012Z,3.47
2023-02-18T01:13:45.267Z,3.42
2023-02-18T01:16:13.207Z,3.50
2023-02-18T01:18:40.811Z,2.90
2023-02-18T01:21:09.236Z,3.25
2023-02-18T01:23:41.978Z,3.33
2023-02-18T01:26:11.537Z,3.40
2023-02-18T01:28:41.644Z,2.55
2023-02-18T01:31:12.821Z,2.80
2023-02-18T01:33:40.584Z,2.90
2023-02-18T01:36:10.891Z,2.55
2023-02-18T01:38:38.398Z,2.45
2023-02-18T01:41:06.494Z,2.42
2023-02-18T01:43:35.013Z,2.33
2023-02-18T01:46:13.918Z,2.22
2023-02-18T01:48:56.776Z,1.88
2023-02-18T01:51:34.388Z,1.88
2023-02-18T01:54:43.253Z,2.25
2023-02-18T01:57:21.613Z,1.50
2023-02-18T02:00:00.186Z,1.90
2023-02-18T02:02:30.126Z,1.80
2023-02-18T02:04:58.338Z,1.67
2023-02-18T02:07:28.977Z,1.60
2023-02-18T02:09:59.992Z,1.70
2023-02-18T02:12:52.168Z,1.90
2023-02-18T02:15:38.205Z,1.45
2023-02-18T02:18:27.183Z,1.70
2023-02-18T02:21:30.570Z,2.33
2023-02-18T02:24:36.876Z,1.70
2023-02-18T02:27:42.085Z,1.70
2023-02-18T02:30:42.756Z,2.25
2023-02-18T02:33:25.033Z,1.95
2023-02-18T02:36:05.544Z,1.90
2023-02-18T02:38:52.406Z,2.13
2023-02-18T02:41:52.918Z,2.08
2023-02-18T02:44:30.326Z,2.05
2023-02-18T02:47:32.381Z,2.10
2023-02-18T02:50:23.596Z,3.20
2023-02-18T02:52:59.424Z,2.20
2023-02-18T02:55:26.861Z,2.38
2023-02-18T02:57:56.723Z,1.55
2023-02-18T03:00:49.941Z,1.40
2023-02-18T03:03:51.647Z,1.20
2023-02-18T03:06:38.129Z,1.40
2023-02-18T03:09:38.008Z,1.58
2023-02-18T03:12:55.558Z,1.50
2023-02-18T03:15:42.940Z,1.70
2023-02-18T03:18:30.586Z,1.85
2023-02-18T03:21:08.799Z,2.15
2023-02-18T03:23:46.850Z,2.20
2023-02-18T03:26:18.785Z,2.50
2023-02-18T03:28:51.185Z,2.55
2023-02-18T03:31:25.998Z,2.28
2023-02-18T03:34:02.188Z,2.40
2023-02-18T03:59:32.668Z,1.65
2023-02-18T04:02:00.993Z,1.17
2023-02-18T04:04:28.891Z,0.98
2023-02-18T04:06:56.442Z,1.05
2023-02-18T04:09:23.804Z,1.38
2023-02-18T04:11:51.610Z,1.48
2023-02-18T04:14:19.117Z,1.30
2023-02-18T04:16:46.952Z,1.17
2023-02-18T04:19:14.253Z,1.20
2023-02-18T04:21:41.810Z,1.10
2023-02-18T04:24:09.291Z,2.45
2023-02-18T04:26:36.819Z,1.48
2023-02-18T04:29:04.112Z,1.77
2023-02-18T04:31:31.758Z,1.30
2023-02-18T04:33:59.088Z,1.48
2023-02-18T04:36:26.854Z,1.10
2023-02-18T04:38:54.132Z,1.30
2023-02-18T04:41:21.630Z,1.67
2023-02-18T04:43:48.898Z,1.10
2023-02-18T04:46:16.499Z,1.40
2023-02-18T04:48:43.897Z,1.10
2023-02-18T04:51:11.520Z,1.30
2023-02-18T04:53:38.788Z,1.80
2023-02-18T04:56:07.044Z,2.30
2023-02-18T04:58:34.570Z,1.58
2023-02-18T05:01:04.649Z,0.85
2023-02-18T05:03:33.340Z,1.02
2023-02-18T05:06:00.887Z,0.98
2023-02-18T05:08:28.192Z,5.85
2023-02-18T05:10:55.790Z,1.60
2023-02-18T05:13:23.281Z,1.35
2023-02-18T05:15:51.151Z,1.38
2023-02-18T05:18:18.445Z,2.47
2023-02-18T05:20:46.049Z,2.47
2023-02-18T05:23:13.551Z,2.20
2023-02-18T05:25:41.041Z,1.20
2023-02-18T05:28:08.397Z,1.27
2023-02-18T05:30:35.987Z,1.10
2023-02-18T05:33:03.264Z,0.95
2023-02-18T05:35:30.961Z,0.88
2023-02-18T05:37:58.220Z,0.77
2023-02-18T05:40:25.761Z,1.00
2023-02-18T05:42:53.022Z,0.70
2023-02-18T05:45:20.605Z,0.70
2023-02-18T05:47:47.872Z,0.60
2023-02-18T05:50:15.616Z,0.60
2023-02-18T05:52:42.955Z,1.00
2023-02-18T05:55:10.590Z,0.63
2023-02-18T05:57:37.805Z,0.80
2023-02-18T06:00:07.600Z,0.90
2023-02-18T06:02:34.889Z,1.25
2023-02-18T06:05:03.079Z,1.05
2023-02-18T06:07:30.407Z,1.30
2023-02-18T06:09:58.048Z,0.95
2023-02-18T06:12:26.086Z,1.10
2023-02-18T06:14:53.767Z,0.98
2023-02-18T06:17:22.724Z,0.88
2023-02-18T06:19:50.320Z,1.40
2023-02-18T06:22:17.721Z,0.70
2023-02-18T06:24:45.395Z,0.70
2023-02-18T06:27:12.695Z,0.77
2023-02-18T06:29:40.242Z,0.70
2023-02-18T06:32:07.670Z,1.05
2023-02-18T06:34:35.253Z,0.90
2023-02-18T06:37:02.515Z,0.95
2023-02-18T06:39:30.080Z,0.70
2023-02-18T06:41:57.448Z,0.98
2023-02-18T06:44:24.974Z,0.73
2023-02-18T06:46:52.297Z,1.08
2023-02-18T06:49:19.849Z,0.90
2023-02-18T06:51:47.211Z,1.40
2023-02-18T06:54:14.766Z,1.20
2023-02-18T06:56:42.090Z,0.90
2023-02-18T06:59:09.739Z,1.98
2023-02-18T07:01:37.054Z,1.17
2023-02-18T07:04:04.833Z,1.40
2023-02-18T07:06:32.149Z,1.08
2023-02-18T07:08:59.831Z,1.00
2023-02-18T07:11:27.187Z,2.10
2023-02-18T07:13:54.779Z,1.25
2023-02-18T07:16:22.082Z,1.10
2023-02-18T07:18:49.759Z,1.00
2023-02-18T07:21:17.084Z,1.58
2023-02-18T07:23:44.672Z,1.20
2023-02-18T07:26:14.676Z,1.15
2023-02-18T07:28:42.884Z,1.50
2023-02-18T07:31:10.589Z,2.50
2023-02-18T07:33:38.245Z,2.55
2023-02-18T07:36:06.662Z,3.20
2023-02-18T07:38:34.504Z,2.10
2023-02-18T07:41:01.858Z,4.00
2023-02-18T07:43:29.421Z,3.28
2023-02-18T07:45:56.744Z,3.10
2023-02-18T07:48:24.362Z,2.13
2023-02-18T07:50:51.671Z,1.88
2023-02-18T07:53:19.254Z,3.65
2023-02-18T07:55:49.339Z,2.60
2023-02-18T07:58:28.126Z,1.80
2023-02-18T08:00:56.262Z,2.42
2023-02-18T08:03:29.127Z,3.20
2023-02-18T08:05:57.285Z,2.33
2023-02-18T08:08:31.454Z,2.13
2023-02-18T08:11:13.301Z,1.90
2023-02-18T08:13:47.185Z,2.45
2023-02-18T08:16:16.116Z,1.80
2023-02-18T08:18:43.841Z,1.92
2023-02-18T08:21:11.161Z,1.63
2023-02-18T08:23:39.344Z,1.17
2023-02-18T08:26:07.530Z,1.30
2023-02-18T08:28:35.610Z,1.40
2023-02-18T08:31:03.146Z,1.35
2023-02-18T08:33:31.078Z,1.67
2023-02-18T08:35:58.840Z,1.92
2023-02-18T08:38:26.537Z,1.92
2023-02-18T08:41:03.551Z,2.45
2023-02-18T08:43:31.370Z,2.50
2023-02-18T08:45:59.486Z,2.92
2023-02-18T08:48:28.156Z,3.10
2023-02-18T08:50:55.814Z,2.95
2023-02-18T08:53:23.808Z,2.40
2023-02-18T08:55:51.210Z,2.60
2023-02-18T08:58:18.793Z,3.90
2023-02-18T09:00:46.556Z,2.40
2023-02-18T09:03:15.955Z,2.30
2023-02-18T09:05:43.244Z,3.55
2023-02-18T09:08:10.967Z,3.50
2023-02-18T09:10:39.601Z,6.07
2023-02-18T09:13:07.159Z,4.60
2023-02-18T09:15:34.429Z,5.38
2023-02-18T09:18:02.076Z,2.90
2023-02-18T09:20:29.488Z,4.20
2023-02-18T09:22:57.906Z,3.70
2023-02-18T09:25:25.715Z,2.78
2023-02-18T09:27:53.272Z,3.10
2023-02-18T09:30:20.753Z,2.92
2023-02-18T09:32:48.326Z,2.25
2023-02-18T09:35:15.711Z,3.30
2023-02-18T09:37:43.291Z,7.10
2023-02-18T09:40:29.601Z,5.28
2023-02-18T09:42:59.165Z,6.38
2023-02-18T09:45:27.882Z,6.95
2023-02-18T09:47:56.554Z,3.83
2023-02-18T09:50:28.971Z,2.75
2023-02-18T09:53:01.868Z,3.30
2023-02-18T09:55:33.882Z,2.78
2023-02-18T09:58:13.791Z,3.20
2023-02-18T10:00:47.535Z,3.58
2023-02-18T10:03:23.587Z,2.22
2023-02-18T10:06:02.358Z,2.47
2023-02-18T10:08:42.653Z,1.77
2023-02-18T10:11:30.900Z,2.08
2023-02-18T10:14:02.968Z,2.22
2023-02-18T10:16:30.996Z,2.17
2023-02-18T10:19:20.352Z,1.90
2023-02-18T10:21:49.647Z,2.08
2023-02-18T10:24:55.685Z,2.03
2023-02-18T10:27:39.379Z,1.75
2023-02-18T10:30:15.775Z,2.10
2023-02-18T10:32:47.171Z,1.85
2023-02-18T10:35:46.400Z,2.00
2023-02-18T10:38:46.703Z,1.70
2023-02-18T10:42:06.435Z,1.73
2023-02-18T10:45:09.484Z,1.80
2023-02-18T10:48:10.221Z,3.95
2023-02-18T10:50:46.198Z,2.10
2023-02-18T10:53:36.249Z,2.17
2023-02-18T10:56:05.862Z,1.98
2023-02-18T10:58:46.233Z,2.17
2023-02-18T11:01:21.326Z,2.25
2023-02-18T11:04:07.067Z,2.88
2023-02-18T11:06:45.291Z,3.42
2023-02-18T11:09:47.860Z,3.00
2023-02-18T11:12:22.907Z,3.00
2023-02-18T11:15:13.706Z,2.72
2023-02-18T11:17:43.936Z,3.60
2023-02-18T11:20:26.292Z,2.45
2023-02-18T11:23:06.445Z,3.08
2023-02-18T11:25:41.937Z,3.03
2023-02-18T11:28:18.309Z,3.25
2023-02-18T11:30:53.501Z,2.90
2023-02-18T11:33:56.884Z,2.58
2023-02-18T11:36:33.151Z,3.63
2023-02-18T11:39:07.562Z,2.17
2023-02-18T11:41:48.308Z,3.22
2023-02-18T11:44:52.487Z,5.05
2023-02-18T11:47:26.275Z,6.75
2023-02-18T11:50:08.806Z,6.80
2023-02-18T11:52:39.637Z,5.20
2023-02-18T11:55:08.994Z,6.20
2023-02-18T11:57:41.587Z,6.25
2023-02-18T12:00:48.123Z,7.45
2023-02-18T12:03:57.062Z,7.75
2023-02-18T12:06:35.080Z,4.63
2023-02-18T12:09:31.757Z,9.43
2023-02-18T12:12:28.270Z,15.55
2023-02-18T12:14:58.893Z,14.10
2023-02-18T12:17:52.910Z,7.70
2023-02-18T12:20:34.503Z,6.13
2023-02-18T12:23:27.383Z,7.43
2023-02-18T12:26:22.388Z,5.18
2023-02-18T12:29:01.718Z,5.97
2023-02-18T12:31:57.040Z,8.23
2023-02-18T12:34:46.834Z,6.75
2023-02-18T12:37:47.192Z,6.88
2023-02-18T12:40:38.865Z,6.10
2023-02-18T12:43:53.100Z,5.43
2023-02-18T12:46:41.926Z,4.97
2023-02-18T12:50:00.111Z,5.05
2023-02-18T12:53:07.111Z,5.70
2023-02-18T12:56:13.530Z,5.90
2023-02-18T12:59:15.892Z,5.78
2023-02-18T13:02:14.615Z,3.67
2023-02-18T13:05:07.750Z,5.05
2023-02-18T13:08:07.377Z,6.28
2023-02-18T13:11:31.033Z,4.53
2023-02-18T13:14:17.567Z,7.63
2023-02-18T13:16:51.723Z,6.85
2023-02-18T13:19:31.909Z,6.70
2023-02-18T13:22:09.626Z,6.80
2023-02-18T13:24:43.314Z,9.65
2023-02-18T13:28:10.084Z,8.88
2023-02-18T13:31:04.875Z,9.75
2023-02-18T13:33:57.024Z,9.30
2023-02-18T13:37:01.324Z,9.32
2023-02-18T13:39:30.098Z,10.75
2023-02-18T13:42:37.713Z,15.57
2023-02-18T13:45:24.169Z,9.10
2023-02-18T13:47:53.281Z,10.38
2023-02-18T13:50:23.338Z,6.30
2023-02-18T13:53:00.932Z,6.18
2023-02-18T13:56:09.716Z,7.32
2023-02-18T13:58:44.273Z,5.65
2023-02-18T14:01:11.743Z,7.93
2023-02-18T14:03:47.675Z,11.48
2023-02-18T14:06:33.925Z,10.65
2023-02-18T14:09:24.500Z,10.93
2023-02-18T14:11:56.701Z,12.27
2023-02-18T14:14:27.004Z,12.70
2023-02-18T14:17:18.805Z,15.38
2023-02-18T14:20:01.070Z,17.33
2023-02-18T14:22:31.159Z,18.63
2023-02-18T14:25:22.293Z,18.63
2023-02-18T14:27:54.804Z,18.90
2023-02-18T14:30:22.385Z,17.80
2023-02-18T14:33:00.660Z,17.63
2023-02-18T14:35:51.118Z,16.83
2023-02-18T14:38:52.387Z,14.52
2023-02-18T14:41:56.916Z,13.93
2023-02-18T14:44:48.616Z,15.65
2023-02-18T14:47:53.000Z,14.82
2023-02-18T14:50:22.381Z,14.63
2023-02-18T14:53:03.678Z,15.30
2023-02-18T14:55:38.564Z,16.52
2023-02-18T14:58:22.488Z,15.20
2023-02-18T15:00:49.814Z,14.25
2023-02-18T15:03:22.444Z,13.85
2023-02-18T15:05:51.938Z,14.55
2023-02-18T15:08:26.756Z,14.93
2023-02-18T15:11:08.368Z,14.50
2023-02-18T15:13:45.430Z,15.77
2023-02-18T15:16:34.253Z,17.20
2023-02-18T15:19:13.705Z,16.40
2023-02-18T15:21:46.210Z,17.60
2023-02-18T15:24:37.322Z,18.52
2023-02-18T15:27:32.126Z,19.27
2023-02-18T15:30:13.529Z,20.90
2023-02-18T15:32:45.577Z,19.23
2023-02-18T15:35:19.781Z,22.00
2023-02-18T15:37:54.946Z,20.95
2023-02-18T15:40:34.732Z,22.10
2023-02-18T15:43:05.914Z,23.88
2023-02-18T15:45:45.138Z,23.95
2023-02-18T15:48:51.357Z,24.75
2023-02-18T15:51:27.635Z,26.60
2023-02-18T15:54:00.840Z,25.48
2023-02-18T15:56:43.576Z,25.55
2023-02-18T15:59:44.889Z,26.17
2023-02-18T16:02:23.012Z,22.58
2023-02-18T16:05:00.108Z,21.35
2023-02-18T16:07:53.029Z,19.85
2023-02-18T16:10:23.968Z,19.02
2023-02-18T16:13:00.491Z,19.77
2023-02-18T16:15:40.845Z,17.40
2023-02-18T16:18:30.197Z,18.30
2023-02-18T16:21:09.763Z,15.63
2023-02-18T16:23:45.167Z,17.80
2023-02-18T16:26:28.753Z,17.55
2023-02-18T16:29:24.363Z,15.32
2023-02-18T16:31:51.837Z,16.10
2023-02-18T16:34:19.621Z,17.13
2023-02-18T16:37:05.635Z,15.05
2023-02-18T16:39:36.091Z,15.55
2023-02-18T16:42:04.081Z,16.20
2023-02-18T16:44:33.902Z,16.42
2023-02-18T16:47:01.955Z,15.75
2023-02-18T16:49:31.198Z,13.82
2023-02-18T16:52:06.145Z,15.70
2023-02-18T16:54:34.765Z,16.58
2023-02-18T16:57:02.115Z,15.13
2023-02-18T16:59:29.747Z,15.88
2023-02-18T17:01:57.096Z,16.58
2023-02-18T17:04:24.750Z,14.23
2023-02-18T17:06:52.170Z,16.73
2023-02-18T17:09:23.425Z,17.05
2023-02-18T17:11:53.866Z,17.10
2023-02-18T17:14:23.695Z,13.80
2023-02-18T17:16:54.504Z,13.73
2023-02-18T17:19:22.283Z,14.02
2023-02-18T17:21:50.371Z,13.38
2023-02-18T17:24:19.332Z,10.57
2023-02-18T17:26:46.687Z,10.30
2023-02-18T17:29:14.347Z,12.90
2023-02-18T17:31:47.635Z,8.45
2023-02-18T17:34:26.699Z,7.28
2023-02-18T17:36:54.718Z,7.18
2023-02-18T17:39:22.740Z,8.02
2023-02-18T17:41:50.431Z,9.00
2023-02-18T17:44:23.905Z,9.15
2023-02-18T17:46:51.630Z,9.68
2023-02-18T17:49:19.466Z,8.60
2023-02-18T17:51:48.062Z,7.97
2023-02-18T17:54:22.884Z,7.22
2023-02-18T17:56:50.673Z,6.25
2023-02-18T17:59:18.323Z,5.82
2023-02-18T18:01:45.792Z,6.63
2023-02-18T18:04:17.082Z,5.90
2023-02-18T18:06:46.993Z,5.90
2023-02-18T18:09:14.835Z,5.03
2023-02-18T18:11:42.472Z,5.38
2023-02-18T18:14:15.118Z,5.07
2023-02-18T18:16:42.492Z,6.03
2023-02-18T18:19:10.534Z,6.55
2023-02-18T18:21:38.354Z,5.43
2023-02-18T18:24:06.316Z,5.18
2023-02-18T18:26:33.683Z,5.30
2023-02-18T18:29:01.474Z,4.60
2023-02-18T18:31:29.059Z,5.93
2023-02-18T18:33:57.334Z,4.55
2023-02-18T18:36:24.665Z,5.30
2023-02-18T18:38:53.023Z,5.35
2023-02-18T18:41:22.893Z,4.45
2023-02-18T18:43:51.285Z,5.88
2023-02-18T18:46:19.071Z,4.03
2023-02-18T18:48:46.989Z,5.20
2023-02-18T18:51:30.071Z,4.97
2023-02-18T18:53:57.721Z,4.25
2023-02-18T18:56:25.336Z,3.58
2023-02-18T18:58:53.122Z,3.70
2023-02-18T19:01:27.728Z,3.65
2023-02-18T19:03:56.032Z,3.03
2023-02-18T19:06:23.488Z,3.20
2023-02-18T19:08:51.574Z,4.60
2023-02-18T19:11:18.994Z,4.00
2023-02-18T19:13:46.858Z,3.70
2023-02-18T19:16:22.538Z,3.42
2023-02-18T19:18:50.536Z,3.17
2023-02-18T19:21:18.702Z,3.30
2023-02-18T19:23:46.401Z,2.67
2023-02-18T19:26:16.859Z,3.28
2023-02-18T19:28:46.243Z,2.78
2023-02-18T19:31:14.089Z,3.05
2023-02-18T19:33:45.626Z,2.75
2023-02-18T19:36:14.913Z,3.17
2023-02-18T19:38:43.038Z,2.85
2023-02-18T19:41:19.089Z,3.13
2023-02-18T19:43:47.183Z,3.08
2023-02-18T19:46:19.253Z,2.33
2023-02-18T19:48:52.746Z,3.20
2023-02-18T19:51:21.470Z,2.67
2023-02-18T19:53:49.230Z,3.08
2023-02-18T19:56:16.739Z,3.35
2023-02-18T19:58:44.611Z,4.28
2023-02-18T20:01:18.363Z,3.47
2023-02-18T20:03:47.427Z,3.03
2023-02-18T20:06:21.148Z,3.20
2023-02-18T20:08:49.007Z,2.13
2023-02-18T20:11:16.640Z,2.42
2023-02-18T20:13:44.769Z,2.33
2023-02-18T20:16:12.334Z,2.75
2023-02-18T20:18:40.191Z,2.60
2023-02-18T20:21:12.484Z,2.85
2023-02-18T20:23:40.906Z,2.60
2023-02-18T20:26:10.415Z,2.22
2023-02-18T20:28:38.621Z,1.83
2023-02-18T20:31:13.634Z,2.03
2023-02-18T20:33:42.672Z,2.30
2023-02-18T20:36:13.751Z,3.20
2023-02-18T20:38:41.475Z,2.20
2023-02-18T20:41:14.552Z,2.20
2023-02-18T20:43:42.448Z,2.28
2023-02-18T20:46:17.134Z,2.47
2023-02-18T20:48:45.619Z,2.22
2023-02-18T20:51:17.672Z,2.03
2023-02-18T20:53:46.612Z,1.45
2023-02-18T20:56:14.979Z,3.13
2023-02-18T20:58:42.645Z,2.38
2023-02-18T21:01:16.288Z,1.92
2023-02-18T21:03:47.726Z,1.60
2023-02-18T21:06:22.746Z,2.03
2023-02-18T21:08:54.070Z,1.70
2023-02-18T21:11:26.130Z,1.60
2023-02-18T21:13:56.262Z,1.80
2023-02-18T21:16:27.161Z,2.03
2023-02-18T21:18:55.572Z,2.30
2023-02-18T21:21:26.164Z,2.42
2023-02-18T21:23:54.270Z,1.90
2023-02-18T21:26:25.616Z,2.00
2023-02-18T21:28:57.483Z,2.40
2023-02-18T21:31:29.117Z,2.35
2023-02-18T21:33:58.302Z,2.70
2023-02-18T21:36:26.825Z,2.67
2023-02-18T21:39:04.217Z,2.60
2023-02-18T21:41:34.078Z,3.25
2023-02-18T21:44:02.153Z,2.63
2023-02-18T21:46:32.877Z,4.55
2023-02-18T21:49:07.254Z,3.83
2023-02-18T21:51:59.497Z,4.00
2023-02-18T21:54:36.158Z,2.72
2023-02-18T21:57:05.409Z,2.88
2023-02-18T21:59:35.465Z,2.70
2023-02-18T22:02:05.108Z,3.33
2023-02-18T22:04:37.097Z,3.80
2023-02-18T22:07:04.682Z,2.35
2023-02-18T22:09:32.447Z,2.13
2023-02-18T22:11:59.788Z,2.42
2023-02-18T22:14:28.055Z,2.40
2023-02-18T22:16:55.623Z,2.97
2023-02-18T22:19:23.857Z,3.47
2023-02-18T22:21:51.328Z,2.97
2023-02-18T22:24:19.836Z,4.57
2023-02-18T22:26:49.050Z,3.15
2023-02-18T22:29:19.698Z,4.40
2023-02-18T22:31:48.164Z,3.72
2023-02-18T22:34:17.149Z,3.72
2023-02-18T22:36:44.553Z,3.15
2023-02-18T22:39:13.832Z,3.00
2023-02-18T22:41:42.974Z,2.80
2023-02-18T22:44:15.983Z,3.00
2023-02-18T22:46:43.887Z,1.80
2023-02-18T22:49:12.137Z,2.38
2023-02-18T22:51:43.992Z,2.40
2023-02-18T22:54:15.858Z,2.25
2023-02-18T22:56:45.149Z,2.10
2023-02-18T22:59:16.679Z,2.40
2023-02-18T23:01:53.130Z,2.88
2023-02-18T23:04:21.371Z,2.63
2023-02-18T23:06:49.898Z,3.00
2023-02-18T23:09:24.526Z,2.65
2023-02-18T23:11:56.554Z,3.50
2023-02-18T23:14:28.229Z,3.17
2023-02-18T23:17:14.944Z,3.22
2023-02-18T23:19:53.040Z,3.00
2023-02-18T23:22:33.652Z,3.00
2023-02-18T23:25:02.918Z,2.83
2023-02-18T23:27:30.778Z,3.13
2023-02-18T23:29:58.589Z,3.30
2023-02-18T23:32:27.958Z,3.22
2023-02-18T23:34:55.690Z,3.10
2023-02-18T23:37:44.118Z,3.28
2023-02-18T23:40:13.960Z,3.55
2023-02-18T23:42:41.458Z,3.42
2023-02-18T23:45:09.586Z,3.42
2023-02-18T23:47:36.987Z,3.55
2023-02-18T23:50:05.045Z,3.63
2023-02-18T23:52:32.420Z,4.22
2023-02-18T23:55:00.026Z,6.07
2023-02-18T23:57:33.725Z,5.50
